Terminal Aerodrome Forecast
Issued by NWS Mobile, AL

Home | Current Version | Previous Version | Text Only | Print | Product List | Glossary On
Versions: 1 2 3 4 5 6 7 8 9 10 11 12 13 14 15 16 17 18 19 20 21 22 23 24 25 26
000
FTUS44 KMOB 022334
TAFPNS
TAF
KPNS 022334Z 0300/0324 19007KT P6SM VCSH FEW030
     FM030300 VRB04KT P6SM SCT030 SCT250
     FM030900 VRB02KT 4SM BR SCT010
     FM031400 36006KT P6SM SKC=

USA.gov is the U.S. government's official web portal to all federal, state and local government web resources and services.